createdAt,value
2023-02-06T00:00:55.738Z,80.50
2023-02-06T00:03:22.508Z,82.18
2023-02-06T00:05:56.552Z,81.31
2023-02-06T00:08:24.878Z,80.73
2023-02-06T00:10:51.660Z,81.97
2023-02-06T00:13:18.282Z,80.94
2023-02-06T00:15:45.056Z,81.46
2023-02-06T00:18:11.940Z,81.24
2023-02-06T00:20:41.941Z,82.05
2023-02-06T00:23:08.680Z,81.86
2023-02-06T00:25:37.117Z,80.38
2023-02-06T00:28:04.251Z,81.57
2023-02-06T00:30:30.970Z,81.09
2023-02-06T00:32:57.691Z,80.81
2023-02-06T00:35:24.447Z,80.82
2023-02-06T00:37:51.245Z,81.55
2023-02-06T00:40:18.952Z,80.92
2023-02-06T00:42:47.026Z,81.34
2023-02-06T00:45:14.059Z,82.98
2023-02-06T00:47:40.712Z,82.46
2023-02-06T00:50:07.889Z,80.71
2023-02-06T00:52:34.543Z,81.46
2023-02-06T00:55:01.230Z,81.60
2023-02-06T00:57:27.898Z,82.24
2023-02-06T01:00:06.487Z,83.10
2023-02-06T01:02:33.228Z,82.64
2023-02-06T01:04:59.937Z,81.56
2023-02-06T01:07:26.784Z,82.01
2023-02-06T01:09:53.431Z,82.62
2023-02-06T01:12:20.913Z,83.35
2023-02-06T01:14:47.687Z,81.15
2023-02-06T01:17:15.822Z,81.97
2023-02-06T01:19:42.468Z,81.23
2023-02-06T01:22:09.121Z,81.33
2023-02-06T01:24:36.589Z,82.26
2023-02-06T01:27:03.425Z,81.10
2023-02-06T01:29:30.110Z,80.75
2023-02-06T01:31:56.751Z,80.08
2023-02-06T01:34:24.848Z,80.65
2023-02-06T01:36:51.574Z,81.61
2023-02-06T01:39:28.074Z,81.05
2023-02-06T01:41:54.861Z,81.27
2023-02-06T01:44:23.347Z,83.23
2023-02-06T01:46:51.540Z,82.60
2023-02-06T01:49:21.630Z,82.35
2023-02-06T01:51:51.481Z,82.16
2023-02-06T01:54:18.433Z,81.57
2023-02-06T01:56:54.323Z,81.36
2023-02-06T01:59:21.835Z,82.22
2023-02-06T02:01:48.707Z,82.05
2023-02-06T02:04:19.027Z,82.24
2023-02-06T02:06:52.690Z,81.41
2023-02-06T02:09:20.344Z,81.17
2023-02-06T02:11:47.004Z,81.94
2023-02-06T02:14:15.636Z,81.80
2023-02-06T02:16:52.400Z,81.75
2023-02-06T02:20:03.108Z,83.12
2023-02-06T02:22:44.183Z,84.36
2023-02-06T02:25:32.061Z,82.55
2023-02-06T02:28:22.299Z,83.75
2023-02-06T02:31:20.518Z,84.37
2023-02-06T02:34:20.708Z,84.39
2023-02-06T02:36:52.396Z,84.33
2023-02-06T02:39:27.283Z,84.74
2023-02-06T02:41:59.855Z,85.74
2023-02-06T02:44:34.019Z,85.24
2023-02-06T02:47:03.800Z,86.42
2023-02-06T02:49:35.342Z,86.07
2023-02-06T02:52:04.348Z,86.06
2023-02-06T02:54:31.094Z,89.24
2023-02-06T02:57:02.668Z,87.73
2023-02-06T02:59:35.748Z,87.38
2023-02-06T03:02:06.055Z,88.56
2023-02-06T03:04:39.717Z,88.98
2023-02-06T03:07:15.703Z,87.26
2023-02-06T03:09:52.536Z,87.34
2023-02-06T03:12:24.218Z,89.21
2023-02-06T03:14:55.604Z,89.20
2023-02-06T03:17:31.647Z,88.16
2023-02-06T03:20:05.026Z,88.57
2023-02-06T03:22:35.710Z,88.14
2023-02-06T03:25:04.418Z,88.44
2023-02-06T03:27:32.586Z,87.34
2023-02-06T03:30:03.260Z,87.92
2023-02-06T03:32:32.808Z,89.60
2023-02-06T03:35:01.429Z,88.40
2023-02-06T03:37:34.694Z,88.62
2023-02-06T03:40:05.900Z,88.59
2023-02-06T03:42:36.311Z,88.86
2023-02-06T03:45:06.698Z,87.69
2023-02-06T03:47:35.537Z,89.32
2023-02-06T03:50:02.349Z,87.40
2023-02-06T03:52:35.791Z,87.51
2023-02-06T03:55:16.609Z,87.64
2023-02-06T03:57:46.506Z,88.19
2023-02-06T04:00:14.437Z,88.24
2023-02-06T04:02:42.313Z,88.08
2023-02-06T04:05:09.229Z,86.70
2023-02-06T04:07:36.129Z,88.33
2023-02-06T04:10:04.804Z,87.40
2023-02-06T04:12:35.486Z,88.40
2023-02-06T04:15:02.144Z,87.08
2023-02-06T04:17:46.273Z,87.07
2023-02-06T04:20:15.611Z,86.57
2023-02-06T04:22:42.334Z,86.93
2023-02-06T04:25:10.453Z,86.74
2023-02-06T04:27:37.995Z,87.37
2023-02-06T04:30:11.706Z,88.54
2023-02-06T04:32:38.436Z,87.85
2023-02-06T04:35:05.774Z,88.05
2023-02-06T04:37:32.480Z,87.84
2023-02-06T04:39:59.191Z,87.93
2023-02-06T04:42:27.410Z,88.71
2023-02-06T04:44:54.127Z,87.60
2023-02-06T04:47:20.780Z,86.49
2023-02-06T04:49:47.484Z,86.68
2023-02-06T04:52:14.109Z,88.34
2023-02-06T04:54:40.767Z,88.68
2023-02-06T04:57:07.422Z,87.58
2023-02-06T04:59:35.452Z,87.83
2023-02-06T05:02:02.106Z,87.95
2023-02-06T05:04:28.718Z,88.80
2023-02-06T05:06:55.344Z,87.96
2023-02-06T05:09:22.036Z,88.43
2023-02-06T05:11:48.675Z,88.66
2023-02-06T05:14:15.272Z,87.65
2023-02-06T05:16:43.296Z,88.53
2023-02-06T05:19:10.030Z,89.37
2023-02-06T05:21:36.620Z,89.86
2023-02-06T05:24:03.578Z,89.11
2023-02-06T05:26:30.208Z,87.72
2023-02-06T05:28:56.888Z,87.41
2023-02-06T05:31:26.684Z,86.99
2023-02-06T05:33:54.958Z,87.26
2023-02-06T05:36:22.838Z,86.41
2023-02-06T05:38:50.375Z,86.60
2023-02-06T05:41:17.321Z,87.98
2023-02-06T05:43:44.263Z,87.08
2023-02-06T05:46:11.035Z,85.53
2023-02-06T05:48:37.770Z,89.34
2023-02-06T05:51:06.118Z,89.64
2023-02-06T05:53:32.840Z,89.90
2023-02-06T05:55:59.516Z,89.53
2023-02-06T05:58:26.226Z,90.55
2023-02-06T06:00:52.927Z,90.70
2023-02-06T06:03:19.593Z,91.04
2023-02-06T06:05:46.278Z,91.83
2023-02-06T06:08:14.375Z,91.38
2023-02-06T06:10:41.010Z,91.87
2023-02-06T06:13:07.726Z,93.52
2023-02-06T06:15:34.797Z,95.10
2023-02-06T06:18:01.629Z,99.48
2023-02-06T06:20:28.296Z,98.44
2023-02-06T06:22:54.975Z,96.35
2023-02-06T06:25:23.045Z,97.19
2023-02-06T06:27:49.705Z,95.95
2023-02-06T06:30:16.830Z,94.39
2023-02-06T06:32:43.520Z,94.87
2023-02-06T06:35:10.138Z,96.17
2023-02-06T06:37:36.989Z,98.62
2023-02-06T06:40:04.152Z,100.00
2023-02-06T06:42:32.209Z,100.00
2023-02-06T06:44:58.912Z,99.77
2023-02-06T06:47:25.623Z,99.36
2023-02-06T06:49:52.274Z,99.15
2023-02-06T06:52:25.069Z,100.00
2023-02-06T06:54:52.765Z,100.00
2023-02-06T06:57:19.995Z,100.00
2023-02-06T06:59:48.281Z,100.00
2023-02-06T07:02:15.295Z,100.00
2023-02-06T07:04:42.225Z,100.00
2023-02-06T07:07:09.296Z,100.00
2023-02-06T07:09:36.001Z,100.00
2023-02-06T07:12:03.058Z,100.00
2023-02-06T07:14:29.740Z,100.00
2023-02-06T07:16:57.819Z,99.80
2023-02-06T07:19:24.599Z,99.26
2023-02-06T07:21:51.345Z,100.00
2023-02-06T07:24:18.259Z,100.00
2023-02-06T07:26:48.015Z,100.00
2023-02-06T07:29:14.774Z,100.00
2023-02-06T07:31:41.563Z,100.00
2023-02-06T07:34:10.068Z,100.00
2023-02-06T07:36:36.788Z,99.94
2023-02-06T07:39:04.130Z,94.72
2023-02-06T07:41:30.979Z,97.31
2023-02-06T07:43:57.716Z,94.45
2023-02-06T07:46:24.575Z,93.15
2023-02-06T07:48:51.497Z,90.54
2023-02-06T07:51:19.675Z,88.35
2023-02-06T07:53:46.351Z,88.87
2023-02-06T07:56:15.235Z,90.03
2023-02-06T07:58:42.557Z,90.97
2023-02-06T08:01:10.155Z,90.52
2023-02-06T08:03:37.379Z,88.94
2023-02-06T08:06:24.560Z,87.20
2023-02-06T08:08:51.877Z,88.04
2023-02-06T08:11:21.097Z,87.77
2023-02-06T08:13:48.395Z,87.77
2023-02-06T08:16:17.181Z,87.53
2023-02-06T08:18:43.937Z,85.84
2023-02-06T08:21:12.424Z,85.11
2023-02-06T08:23:53.346Z,85.01
2023-02-06T08:26:20.041Z,84.35
2023-02-06T08:28:48.831Z,80.96
2023-02-06T08:31:17.758Z,83.57
2023-02-06T08:33:45.028Z,83.76
2023-02-06T08:36:13.085Z,82.18
2023-02-06T08:38:41.344Z,80.87
2023-02-06T08:41:18.274Z,80.08
2023-02-06T08:43:45.583Z,80.14
2023-02-06T08:46:12.434Z,78.07
2023-02-06T08:48:39.133Z,76.59
2023-02-06T08:51:07.730Z,72.31
2023-02-06T08:53:34.755Z,70.35
2023-02-06T08:56:05.607Z,68.91
2023-02-06T08:58:32.838Z,69.86
2023-02-06T09:01:05.232Z,67.66
2023-02-06T09:03:31.871Z,65.81
2023-02-06T09:06:09.575Z,66.55
2023-02-06T09:08:37.654Z,66.21
2023-02-06T09:11:09.940Z,64.57
2023-02-06T09:13:36.786Z,64.48
2023-02-06T09:16:04.008Z,64.33
2023-02-06T09:18:30.668Z,64.06
2023-02-06T09:21:09.175Z,63.47
2023-02-06T09:23:35.837Z,63.01
2023-02-06T09:26:02.525Z,63.75
2023-02-06T09:28:30.885Z,61.35
2023-02-06T09:30:57.566Z,63.87
2023-02-06T09:33:24.437Z,62.34
2023-02-06T09:36:12.156Z,61.81
2023-02-06T09:38:42.411Z,60.72
2023-02-06T09:41:15.349Z,60.83
2023-02-06T09:43:49.916Z,62.18
2023-02-06T09:46:19.579Z,62.86
2023-02-06T09:48:46.090Z,61.65
2023-02-06T09:51:25.899Z,61.37
2023-02-06T09:54:01.323Z,62.46
2023-02-06T09:56:36.387Z,61.59
2023-02-06T09:59:13.166Z,60.90
2023-02-06T10:02:00.782Z,58.72
2023-02-06T10:04:42.737Z,59.23
2023-02-06T10:07:22.246Z,60.25
2023-02-06T10:09:54.149Z,59.45
2023-02-06T10:12:26.773Z,60.34
2023-02-06T10:15:00.749Z,60.81
2023-02-06T10:17:39.957Z,59.67
2023-02-06T10:20:13.178Z,58.51
2023-02-06T10:22:45.386Z,59.35
2023-02-06T10:25:20.058Z,58.97
2023-02-06T10:27:52.696Z,59.30
2023-02-06T10:30:34.236Z,58.40
2023-02-06T10:33:14.381Z,58.18
2023-02-06T10:35:56.434Z,63.59
2023-02-06T10:38:46.782Z,66.46
2023-02-06T10:41:27.074Z,68.86
2023-02-06T10:44:04.160Z,68.05
2023-02-06T10:46:44.659Z,66.47
2023-02-06T10:49:19.081Z,66.46
2023-02-06T10:51:48.593Z,67.93
2023-02-06T10:54:19.058Z,69.90
2023-02-06T10:56:47.665Z,67.02
2023-02-06T10:59:21.969Z,67.87
2023-02-06T11:01:55.725Z,69.54
2023-02-06T11:04:29.459Z,67.45
2023-02-06T11:07:00.915Z,69.13
2023-02-06T11:09:27.975Z,69.79
2023-02-06T11:11:57.164Z,67.57
2023-02-06T11:14:27.699Z,69.31
2023-02-06T11:16:59.455Z,66.64
2023-02-06T11:19:28.754Z,66.12
2023-02-06T11:22:07.375Z,68.42
2023-02-06T11:24:35.178Z,66.71
2023-02-06T11:27:11.442Z,66.63
2023-02-06T11:29:45.239Z,67.76
2023-02-06T11:32:35.091Z,65.69
2023-02-06T11:35:06.140Z,65.99
2023-02-06T11:37:35.764Z,66.55
2023-02-06T11:40:22.951Z,66.14
2023-02-06T11:42:52.003Z,66.46
2023-02-06T11:45:25.216Z,65.39
2023-02-06T11:47:53.690Z,62.13
2023-02-06T11:50:25.109Z,64.64
2023-02-06T11:52:59.248Z,64.01
2023-02-06T11:55:28.457Z,64.47
2023-02-06T11:58:04.362Z,62.48
2023-02-06T12:00:31.184Z,62.98
2023-02-06T12:02:59.351Z,61.90
2023-02-06T12:05:29.070Z,61.37
2023-02-06T12:07:57.746Z,61.50
2023-02-06T12:10:26.048Z,60.92
2023-02-06T12:12:57.850Z,60.07
2023-02-06T12:15:45.611Z,59.37
2023-02-06T12:18:18.619Z,60.20
2023-02-06T12:20:50.047Z,58.95
2023-02-06T12:23:22.188Z,60.14
2023-02-06T12:25:52.875Z,59.91
2023-02-06T12:28:25.037Z,58.42
2023-02-06T12:30:55.366Z,58.34
2023-02-06T12:33:28.103Z,57.54
2023-02-06T12:36:00.252Z,57.29
2023-02-06T12:38:39.570Z,58.03
2023-02-06T12:41:20.104Z,58.60
2023-02-06T12:43:53.631Z,58.09
2023-02-06T12:46:27.946Z,57.89
2023-02-06T12:49:07.842Z,56.87
2023-02-06T12:51:40.440Z,56.96
2023-02-06T12:54:15.746Z,57.31
2023-02-06T12:56:47.459Z,58.05
2023-02-06T12:59:55.573Z,56.49
2023-02-06T13:02:41.816Z,57.25
2023-02-06T13:05:20.296Z,56.74
2023-02-06T13:07:50.039Z,57.55
2023-02-06T13:10:20.267Z,59.21
2023-02-06T13:12:53.683Z,59.03
2023-02-06T13:15:22.649Z,57.41
2023-02-06T13:17:49.351Z,57.21
2023-02-06T13:20:20.074Z,56.16
2023-02-06T13:22:48.906Z,54.82
2023-02-06T13:25:52.180Z,57.40
2023-02-06T13:28:42.712Z,56.90
2023-02-06T13:31:26.179Z,57.56
2023-02-06T13:33:58.074Z,57.94
2023-02-06T13:36:42.005Z,58.81
2023-02-06T13:39:23.637Z,57.55
2023-02-06T13:41:51.161Z,57.21
2023-02-06T13:44:25.642Z,58.08
2023-02-06T13:47:26.825Z,57.70
2023-02-06T13:50:24.129Z,57.77
2023-02-06T13:53:05.497Z,56.23
2023-02-06T13:55:44.454Z,56.52
2023-02-06T13:58:28.511Z,57.35
2023-02-06T14:00:57.058Z,57.02
2023-02-06T14:03:29.203Z,57.16
2023-02-06T14:06:07.326Z,56.65
2023-02-06T14:08:46.749Z,55.79
2023-02-06T14:11:29.977Z,56.50
2023-02-06T14:14:27.096Z,56.72
2023-02-06T14:17:03.405Z,55.65
2023-02-06T14:19:38.765Z,56.59
2023-02-06T14:22:18.496Z,55.53
2023-02-06T14:25:01.041Z,55.75
2023-02-06T14:27:37.338Z,55.91
2023-02-06T14:30:16.353Z,55.52
2023-02-06T14:32:50.207Z,55.44
2023-02-06T14:35:31.523Z,55.65
2023-02-06T14:38:21.342Z,55.53
2023-02-06T14:40:53.358Z,54.74
2023-02-06T14:43:24.533Z,54.82
2023-02-06T14:46:06.468Z,54.86
2023-02-06T14:48:39.977Z,54.14
2023-02-06T14:51:09.052Z,54.31
2023-02-06T14:53:37.365Z,54.80
2023-02-06T14:56:16.312Z,53.77
2023-02-06T14:58:44.176Z,53.93
2023-02-06T15:01:19.678Z,54.27
2023-02-06T15:03:48.060Z,53.70
2023-02-06T15:06:25.808Z,53.10
2023-02-06T15:08:52.487Z,54.23
2023-02-06T15:11:23.354Z,54.17
2023-02-06T15:13:51.911Z,54.73
2023-02-06T15:16:18.662Z,54.21
2023-02-06T15:18:45.401Z,54.26
2023-02-06T15:21:14.904Z,55.18
2023-02-06T15:23:58.139Z,54.25
2023-02-06T15:26:34.926Z,55.10
2023-02-06T15:29:05.085Z,54.52
2023-02-06T15:31:32.168Z,54.16
2023-02-06T15:34:00.671Z,55.04
2023-02-06T15:36:31.374Z,55.41
2023-02-06T15:38:58.647Z,55.36
2023-02-06T15:41:35.241Z,55.46
2023-02-06T15:44:06.732Z,55.37
2023-02-06T15:46:33.854Z,55.20
2023-02-06T15:49:00.537Z,56.00
2023-02-06T15:51:29.411Z,56.00
2023-02-06T15:54:07.978Z,55.19
2023-02-06T15:56:39.954Z,56.66
2023-02-06T15:59:16.255Z,56.66
2023-02-06T16:01:43.635Z,56.89
2023-02-06T16:04:16.780Z,56.58
2023-02-06T16:06:43.674Z,57.66
2023-02-06T16:09:21.323Z,57.45
2023-02-06T16:11:52.338Z,58.49
2023-02-06T16:14:23.273Z,58.59
2023-02-06T16:16:58.114Z,58.77
2023-02-06T16:19:38.027Z,57.88
2023-02-06T16:22:05.903Z,59.04
2023-02-06T16:24:32.561Z,58.75
2023-02-06T16:27:15.267Z,59.03
2023-02-06T16:29:47.294Z,59.94
2023-02-06T16:32:17.352Z,59.32
2023-02-06T16:34:45.334Z,59.45
2023-02-06T16:37:14.015Z,59.95
2023-02-06T16:39:41.677Z,60.10
2023-02-06T16:42:13.122Z,60.80
2023-02-06T16:44:45.419Z,60.28
2023-02-06T16:47:17.289Z,60.40
2023-02-06T16:49:44.975Z,60.52
2023-02-06T16:52:18.119Z,61.23
2023-02-06T16:54:45.540Z,60.69
2023-02-06T16:57:20.413Z,60.97
2023-02-06T16:59:47.133Z,62.00
2023-02-06T17:02:14.226Z,62.57
2023-02-06T17:04:41.385Z,62.58
2023-02-06T17:07:13.743Z,62.50
2023-02-06T17:09:41.501Z,62.73
2023-02-06T17:12:13.784Z,63.06
2023-02-06T17:14:40.747Z,63.99
2023-02-06T17:17:09.003Z,64.16
2023-02-06T17:19:35.683Z,64.07
2023-02-06T17:22:02.304Z,64.30
2023-02-06T17:24:28.955Z,64.10
2023-02-06T17:26:55.623Z,64.30
2023-02-06T17:29:23.605Z,64.92
2023-02-06T17:31:50.258Z,65.32
2023-02-06T17:34:16.914Z,65.58
2023-02-06T17:36:43.581Z,65.89
2023-02-06T17:39:11.992Z,66.09
2023-02-06T17:41:38.654Z,66.10
2023-02-06T17:44:05.453Z,66.23
2023-02-06T17:46:33.584Z,66.51
2023-02-06T17:49:00.226Z,67.59
2023-02-06T17:51:26.829Z,67.30
2023-02-06T17:53:53.526Z,67.47
2023-02-06T17:56:20.367Z,67.53
2023-02-06T17:58:47.089Z,67.88
2023-02-06T18:01:15.415Z,67.77
2023-02-06T18:03:44.585Z,68.33
2023-02-06T18:06:12.292Z,68.23
2023-02-06T18:08:40.276Z,67.42
2023-02-06T18:11:08.729Z,68.30
2023-02-06T18:13:35.364Z,67.83
2023-02-06T18:16:02.043Z,68.22
2023-02-06T18:18:28.806Z,68.25
2023-02-06T18:20:56.897Z,69.42
2023-02-06T18:23:23.642Z,74.57
2023-02-06T18:25:50.308Z,75.40
2023-02-06T18:28:17.243Z,72.60
2023-02-06T18:30:44.532Z,72.93
2023-02-06T18:33:11.822Z,75.36
2023-02-06T18:35:39.381Z,76.71
2023-02-06T18:38:07.519Z,82.77
2023-02-06T18:40:34.251Z,86.17
2023-02-06T18:43:01.029Z,90.20
2023-02-06T18:45:27.824Z,93.74
2023-02-06T18:47:54.470Z,88.75
2023-02-06T18:50:23.974Z,83.99
2023-02-06T18:52:50.673Z,83.58
2023-02-06T18:55:19.112Z,84.84
2023-02-06T18:57:45.867Z,83.12
2023-02-06T19:00:14.802Z,80.23
2023-02-06T19:02:41.841Z,78.92
2023-02-06T19:05:08.924Z,79.42
2023-02-06T19:07:35.681Z,77.91
2023-02-06T19:10:05.291Z,77.64
2023-02-06T19:12:33.188Z,77.79
2023-02-06T19:14:59.912Z,79.27
2023-02-06T19:17:27.970Z,80.44
2023-02-06T19:19:54.827Z,78.81
2023-02-06T19:22:21.837Z,78.04
2023-02-06T19:24:48.748Z,79.18
2023-02-06T19:27:15.363Z,82.45
2023-02-06T19:29:43.560Z,94.08
2023-02-06T19:32:10.358Z,91.57
2023-02-06T19:34:39.052Z,90.15
2023-02-06T19:37:07.811Z,89.66
2023-02-06T19:39:35.102Z,89.55
2023-02-06T19:42:02.212Z,89.80
2023-02-06T19:44:28.914Z,89.75
2023-02-06T19:46:57.570Z,90.09
2023-02-06T19:49:25.057Z,89.33
2023-02-06T19:51:51.978Z,89.08
2023-02-06T19:54:19.053Z,89.08
2023-02-06T19:56:47.294Z,89.99
2023-02-06T19:59:15.999Z,86.94
2023-02-06T20:01:42.645Z,88.17
2023-02-06T20:04:21.563Z,88.17
2023-02-06T20:06:48.602Z,88.11
2023-02-06T20:09:16.058Z,85.23
2023-02-06T20:11:43.004Z,84.97
2023-02-06T20:14:09.723Z,85.36
2023-02-06T20:16:39.909Z,85.82
2023-02-06T20:19:07.460Z,85.83
2023-02-06T20:21:46.602Z,85.24
2023-02-06T20:24:15.225Z,84.45
2023-02-06T20:26:43.070Z,84.30
2023-02-06T20:29:16.376Z,84.36
2023-02-06T20:31:43.235Z,84.49
2023-02-06T20:34:09.980Z,84.72
2023-02-06T20:36:38.514Z,84.15
2023-02-06T20:39:05.136Z,84.62
2023-02-06T20:41:32.681Z,84.36
2023-02-06T20:44:00.735Z,84.59
2023-02-06T20:46:28.721Z,85.34
2023-02-06T20:48:57.496Z,86.13
2023-02-06T20:51:24.951Z,85.71
2023-02-06T20:53:53.172Z,86.27
2023-02-06T20:56:21.344Z,86.52
2023-02-06T20:58:48.753Z,87.18
2023-02-06T21:01:17.699Z,87.82
2023-02-06T21:03:45.563Z,87.96
2023-02-06T21:06:13.014Z,88.27
2023-02-06T21:08:40.042Z,88.11
2023-02-06T21:11:08.671Z,88.62
2023-02-06T21:13:35.309Z,88.49
2023-02-06T21:16:02.472Z,88.61
2023-02-06T21:18:31.158Z,88.78
2023-02-06T21:21:05.033Z,88.66
2023-02-06T21:23:31.646Z,90.01
2023-02-06T21:25:58.338Z,90.34
2023-02-06T21:28:26.471Z,88.84
2023-02-06T21:30:59.795Z,88.46
2023-02-06T21:33:26.706Z,88.19
2023-02-06T21:35:53.823Z,89.05
2023-02-06T21:38:20.984Z,88.43
2023-02-06T21:40:47.777Z,89.28
2023-02-06T21:43:14.479Z,89.22
2023-02-06T21:45:44.204Z,89.91
2023-02-06T21:48:10.945Z,89.33
2023-02-06T21:50:38.609Z,89.92
2023-02-06T21:53:05.425Z,89.74
2023-02-06T21:55:32.453Z,90.01
2023-02-06T21:58:06.909Z,89.26
2023-02-06T22:00:33.772Z,88.39
2023-02-06T22:03:02.042Z,89.87
2023-02-06T22:05:28.892Z,88.87
2023-02-06T22:07:55.911Z,89.54
2023-02-06T22:10:23.035Z,89.74
2023-02-06T22:13:17.848Z,91.84
2023-02-06T22:19:39.430Z,96.46
2023-02-06T22:29:34.484Z,98.59
2023-02-06T22:35:35.426Z,99.36
2023-02-06T22:39:03.934Z,100.00
2023-02-06T22:52:37.617Z,100.00
2023-02-06T22:58:32.505Z,100.00
2023-02-06T23:01:02.191Z,100.00
2023-02-06T23:03:29.041Z,100.00
2023-02-06T23:05:55.815Z,100.00
2023-02-06T23:08:24.266Z,100.00
2023-02-06T23:10:50.909Z,100.00
2023-02-06T23:13:17.522Z,100.00
2023-02-06T23:15:44.139Z,100.00
2023-02-06T23:18:10.864Z,100.00
2023-02-06T23:20:37.968Z,100.00
2023-02-06T23:23:05.092Z,100.00
2023-02-06T23:25:33.112Z,100.00
2023-02-06T23:28:00.165Z,100.00
2023-02-06T23:30:26.884Z,100.00
2023-02-06T23:32:53.572Z,100.00
2023-02-06T23:35:20.187Z,100.00
2023-02-06T23:37:46.830Z,100.00
2023-02-06T23:40:13.462Z,100.00
2023-02-06T23:42:41.410Z,100.00
2023-02-06T23:45:08.413Z,100.00
2023-02-06T23:47:35.154Z,100.00
2023-02-06T23:50:05.575Z,100.00
2023-02-06T23:52:32.197Z,100.00
2023-02-06T23:54:58.841Z,100.00
2023-02-06T23:57:25.560Z,100.00
2023-02-06T23:59:53.827Z,100.00
